createdAt,value
2016-11-27T00:00:39.296Z,76.9
2016-11-27T00:01:39.661Z,76.8
2016-11-27T00:02:40.030Z,76.8
2016-11-27T00:03:40.397Z,77
2016-11-27T00:04:40.764Z,76.7
2016-11-27T00:05:41.131Z,76.9
2016-11-27T00:06:41.497Z,76.8
2016-11-27T00:07:41.860Z,76.9
2016-11-27T00:08:42.222Z,77.2
2016-11-27T00:09:42.588Z,77.2
2016-11-27T00:10:42.954Z,77.4
2016-11-27T00:11:43.326Z,77.4
2016-11-27T00:12:43.699Z,77.4
2016-11-27T00:13:44.062Z,77.2
2016-11-27T00:14:44.417Z,77.8
2016-11-27T00:15:44.776Z,77.8
2016-11-27T00:16:45.138Z,77.2
2016-11-27T00:17:45.499Z,77.6
2016-11-27T00:18:45.872Z,77.6
2016-11-27T00:19:46.240Z,77.6
2016-11-27T00:20:46.597Z,77.6
2016-11-27T00:21:46.961Z,77.6
2016-11-27T00:22:47.331Z,77.3
2016-11-27T00:23:47.700Z,77.7
2016-11-27T00:24:48.070Z,77.5
2016-11-27T00:25:48.431Z,77.4
2016-11-27T00:26:48.789Z,77.6
2016-11-27T00:27:49.150Z,77.6
2016-11-27T00:28:49.509Z,77.6
2016-11-27T00:29:49.873Z,77.6
2016-11-27T00:30:50.240Z,77.7
2016-11-27T00:31:50.610Z,77.8
2016-11-27T00:32:50.989Z,77.8
2016-11-27T00:33:51.382Z,78
2016-11-27T00:34:51.747Z,77.8
2016-11-27T00:35:52.105Z,78.1
2016-11-27T00:36:52.467Z,77.9
2016-11-27T00:37:52.832Z,77.8
2016-11-27T00:38:53.200Z,77.6
2016-11-27T00:39:53.573Z,77.6
2016-11-27T00:40:53.943Z,77.9
2016-11-27T00:41:54.306Z,78.1
2016-11-27T00:42:54.667Z,77.6
2016-11-27T00:43:55.030Z,77.7
2016-11-27T00:44:55.389Z,77.7
2016-11-27T00:45:55.751Z,77.6
2016-11-27T00:46:56.122Z,77.7
2016-11-27T00:47:56.487Z,78
2016-11-27T00:48:56.856Z,77.5
2016-11-27T00:49:57.217Z,78.3
2016-11-27T00:50:57.574Z,78.5
2016-11-27T00:51:57.939Z,78.5
2016-11-27T00:52:58.308Z,77.8
2016-11-27T00:53:58.673Z,77.9
2016-11-27T00:54:59.029Z,78.3
2016-11-27T00:55:59.391Z,78.4
2016-11-27T00:56:59.751Z,77.6
2016-11-27T00:58:00.113Z,77.8
2016-11-27T00:59:00.478Z,78
2016-11-27T01:00:00.848Z,77.9
2016-11-27T01:01:01.224Z,78.2
2016-11-27T01:02:01.584Z,78.6
2016-11-27T01:03:01.941Z,78.5
2016-11-27T01:04:02.299Z,78.4
2016-11-27T01:05:02.657Z,78.3
2016-11-27T01:06:03.024Z,78.7
2016-11-27T01:07:03.396Z,78.4
2016-11-27T01:08:03.768Z,78.4
2016-11-27T01:09:04.135Z,78.5
2016-11-27T01:10:04.506Z,78.2
2016-11-27T01:11:04.874Z,78.3
2016-11-27T01:12:05.237Z,78.7
2016-11-27T01:13:05.600Z,78.2
2016-11-27T01:14:05.963Z,78.3
2016-11-27T01:15:06.334Z,78.4
2016-11-27T01:16:06.705Z,78.7
2016-11-27T01:17:07.069Z,78.4
2016-11-27T01:18:07.434Z,78.2
2016-11-27T01:19:07.793Z,78.2
2016-11-27T01:20:08.152Z,78.2
2016-11-27T01:21:08.515Z,78.2
2016-11-27T01:22:08.878Z,78.1
2016-11-27T01:23:09.260Z,78.2
2016-11-27T01:24:09.642Z,78.3
2016-11-27T01:25:10.013Z,78
2016-11-27T01:26:10.379Z,78.3
2016-11-27T01:27:10.739Z,78.2
2016-11-27T01:28:11.095Z,78.4
2016-11-27T01:29:11.455Z,78.2
2016-11-27T01:30:11.819Z,78.3
2016-11-27T01:31:12.188Z,78.2
2016-11-27T01:32:12.552Z,78.2
2016-11-27T01:33:12.919Z,78.5
2016-11-27T01:34:13.283Z,78.4
2016-11-27T01:35:13.641Z,78.5
2016-11-27T01:36:14.002Z,78.4
2016-11-27T01:37:14.360Z,78.5
2016-11-27T01:38:14.754Z,78.4
2016-11-27T01:39:15.122Z,78.4
2016-11-27T01:40:15.494Z,78.2
2016-11-27T01:41:15.860Z,78.3
2016-11-27T01:42:16.224Z,78.8
2016-11-27T01:43:16.583Z,78.4
2016-11-27T01:44:16.940Z,78.3
2016-11-27T01:45:17.296Z,78.6
2016-11-27T01:46:17.688Z,78.6
2016-11-27T01:47:18.058Z,78.6
2016-11-27T01:48:18.432Z,78.6
2016-11-27T01:49:18.806Z,78.7
2016-11-27T01:50:19.173Z,78.8
2016-11-27T01:51:19.873Z,78.5
2016-11-27T01:52:20.231Z,78.6
2016-11-27T01:53:20.592Z,78.5
2016-11-27T01:54:20.956Z,78.6
2016-11-27T01:55:21.330Z,78.7
2016-11-27T01:56:21.722Z,78.6
2016-11-27T01:57:22.086Z,78.5
2016-11-27T01:58:22.451Z,78.9
2016-11-27T01:59:22.819Z,78.3
2016-11-27T02:00:23.185Z,78.6
2016-11-27T02:01:23.556Z,78.5
2016-11-27T02:02:23.916Z,78.5
2016-11-27T02:03:24.273Z,78.6
2016-11-27T02:04:24.634Z,78.6
2016-11-27T02:05:24.992Z,78.7
2016-11-27T02:06:25.359Z,78.8
2016-11-27T02:07:25.723Z,78.9
2016-11-27T02:08:26.091Z,78.9
2016-11-27T02:09:26.456Z,78.7
2016-11-27T02:10:26.821Z,78.8
2016-11-27T02:11:27.179Z,78.9
2016-11-27T02:12:27.538Z,79
2016-11-27T02:13:27.899Z,78.9
2016-11-27T02:14:28.260Z,79.1
2016-11-27T02:15:28.628Z,78.8
2016-11-27T02:16:28.999Z,78.9
2016-11-27T02:17:29.365Z,78.9
2016-11-27T02:18:29.731Z,78.9
2016-11-27T02:19:30.097Z,78.9
2016-11-27T02:20:30.455Z,78.8
2016-11-27T02:21:30.810Z,79
2016-11-27T02:22:31.179Z,79.1
2016-11-27T02:23:31.546Z,78.8
2016-11-27T02:24:31.917Z,78.9
2016-11-27T02:25:32.288Z,78.9
2016-11-27T02:26:32.684Z,78.9
2016-11-27T02:27:33.044Z,79
2016-11-27T02:28:33.414Z,78.7
2016-11-27T02:29:33.780Z,79
2016-11-27T02:30:34.149Z,79.1
2016-11-27T02:31:34.505Z,78.8
2016-11-27T02:32:34.861Z,79.2
2016-11-27T02:33:35.225Z,78.6
2016-11-27T02:34:35.588Z,79
2016-11-27T02:35:35.952Z,78.9
2016-11-27T02:36:36.336Z,78.9
2016-11-27T02:37:36.952Z,78.5
2016-11-27T02:38:37.313Z,79.2
2016-11-27T02:39:37.671Z,79.1
2016-11-27T02:40:38.033Z,79.1
2016-11-27T02:41:38.392Z,79.1
2016-11-27T02:42:38.760Z,79
2016-11-27T02:43:39.131Z,79.1
2016-11-27T02:44:39.496Z,79.1
2016-11-27T02:45:39.869Z,79.1
2016-11-27T02:46:40.234Z,79.3
2016-11-27T02:47:40.591Z,79.1
2016-11-27T02:48:40.947Z,79.1
2016-11-27T02:49:41.309Z,79.1
2016-11-27T02:50:41.674Z,79.3
2016-11-27T02:51:42.043Z,79.2
2016-11-27T02:52:42.413Z,79.3
2016-11-27T02:53:42.789Z,79.1
2016-11-27T02:54:43.150Z,79.1
2016-11-27T02:55:43.507Z,79.1
2016-11-27T02:56:43.868Z,79.1
2016-11-27T02:57:44.227Z,79.1
2016-11-27T02:58:44.590Z,79.1
2016-11-27T02:59:44.959Z,79.1
2016-11-27T03:00:45.326Z,79.1
2016-11-27T03:01:45.689Z,79.2
2016-11-27T03:02:46.355Z,79.1
2016-11-27T03:03:46.724Z,79.2
2016-11-27T03:04:47.092Z,79.1
2016-11-27T03:05:47.464Z,79.1
2016-11-27T03:06:47.827Z,79.1
2016-11-27T03:07:48.289Z,79.1
2016-11-27T03:08:48.652Z,79.1
2016-11-27T03:09:49.009Z,79
2016-11-27T03:10:49.373Z,79.1
2016-11-27T03:11:49.743Z,79.1
2016-11-27T03:12:50.112Z,79.6
2016-11-27T03:13:50.479Z,79.1
2016-11-27T03:14:50.844Z,79.3
2016-11-27T03:15:51.203Z,79.4
2016-11-27T03:16:51.563Z,79.2
2016-11-27T03:17:51.917Z,79.9
2016-11-27T03:18:52.284Z,79.7
2016-11-27T03:19:52.651Z,79.2
2016-11-27T03:20:53.025Z,79.4
2016-11-27T03:21:53.393Z,79.5
2016-11-27T03:22:53.762Z,79.1
2016-11-27T03:23:54.119Z,79.3
2016-11-27T03:24:54.478Z,79.3
2016-11-27T03:25:54.839Z,79
2016-11-27T03:26:55.203Z,79.4
2016-11-27T03:27:55.572Z,79.5
2016-11-27T03:28:55.940Z,79.4
2016-11-27T03:29:56.309Z,79.4
2016-11-27T03:30:56.667Z,79.1
2016-11-27T03:31:57.021Z,79.5
2016-11-27T03:32:57.706Z,79.4
2016-11-27T03:33:58.063Z,79.5
2016-11-27T03:34:58.426Z,79.9
2016-11-27T03:35:58.791Z,79.3
2016-11-27T03:36:59.161Z,79.4
2016-11-27T03:37:59.631Z,79.9
2016-11-27T03:38:59.998Z,79.1
2016-11-27T03:40:00.384Z,79.4
2016-11-27T03:41:00.745Z,79.5
2016-11-27T03:42:01.106Z,79.3
2016-11-27T03:43:01.471Z,79.2
2016-11-27T03:44:01.869Z,79.1
2016-11-27T03:45:02.240Z,79.2
2016-11-27T03:46:02.614Z,79.5
2016-11-27T03:47:02.978Z,79.3
2016-11-27T03:48:03.334Z,79.5
2016-11-27T03:49:03.694Z,79.1
2016-11-27T03:50:04.055Z,79.7
2016-11-27T03:51:04.424Z,79.3
2016-11-27T03:52:04.793Z,79.4
2016-11-27T03:53:05.159Z,79.4
2016-11-27T03:54:05.527Z,79.1
2016-11-27T03:55:05.892Z,79.6
2016-11-27T03:56:06.249Z,79.8
2016-11-27T03:57:06.609Z,79.3
2016-11-27T03:58:06.968Z,79.4
2016-11-27T03:59:07.332Z,79.3
2016-11-27T04:00:07.698Z,79.4
2016-11-27T04:01:08.068Z,79.4
2016-11-27T04:02:08.438Z,79.2
2016-11-27T04:03:08.809Z,79.1
2016-11-27T04:04:09.520Z,79.1
2016-11-27T04:05:09.887Z,79.5
2016-11-27T04:06:10.259Z,79.3
2016-11-27T04:07:10.620Z,79.5
2016-11-27T04:08:11.112Z,79.1
2016-11-27T04:09:11.471Z,79.7
2016-11-27T04:10:11.832Z,79.9
2016-11-27T04:11:12.195Z,79.5
2016-11-27T04:12:12.560Z,79.3
2016-11-27T04:13:12.927Z,79.5
2016-11-27T04:14:13.297Z,79.2
2016-11-27T04:15:13.666Z,79.3
2016-11-27T04:16:14.046Z,79.4
2016-11-27T04:17:14.404Z,79.1
2016-11-27T04:18:14.763Z,79.5
2016-11-27T04:19:15.124Z,79.9
2016-11-27T04:20:15.488Z,79.8
2016-11-27T04:21:15.861Z,79.7
2016-11-27T04:22:16.226Z,79.7
2016-11-27T04:23:16.595Z,79.9
2016-11-27T04:24:17.288Z,79.7
2016-11-27T04:25:17.652Z,79.8
2016-11-27T04:26:18.016Z,79.8
2016-11-27T04:27:18.380Z,79.7
2016-11-27T04:28:18.746Z,79.7
2016-11-27T04:29:19.119Z,79.8
2016-11-27T04:30:19.489Z,79.3
2016-11-27T04:31:19.855Z,79.7
2016-11-27T04:32:20.211Z,79.7
2016-11-27T04:33:20.874Z,79.7
2016-11-27T04:34:21.235Z,79.5
2016-11-27T04:35:21.598Z,79.3
2016-11-27T04:36:21.964Z,79.5
2016-11-27T04:37:22.328Z,79.5
2016-11-27T04:38:22.788Z,79.5
2016-11-27T04:39:23.154Z,79.2
2016-11-27T04:40:23.525Z,79.5
2016-11-27T04:41:23.890Z,79.3
2016-11-27T04:42:24.296Z,79.3
2016-11-27T04:43:24.663Z,79.5
2016-11-27T04:44:25.019Z,79.5
2016-11-27T04:45:25.376Z,79.4
2016-11-27T04:46:25.736Z,79.2
2016-11-27T04:47:26.098Z,79.5
2016-11-27T04:48:26.474Z,79.1
2016-11-27T04:49:26.848Z,79.4
2016-11-27T04:50:27.226Z,79.4
2016-11-27T04:51:27.590Z,79.3
2016-11-27T04:52:27.949Z,79.3
2016-11-27T04:53:28.308Z,79.5
2016-11-27T04:54:28.663Z,79.2
2016-11-27T04:55:29.031Z,79.4
2016-11-27T04:56:29.395Z,79.9
2016-11-27T04:57:29.762Z,79.6
2016-11-27T04:58:30.127Z,79.9
2016-11-27T04:59:30.496Z,79.5
2016-11-27T05:00:30.856Z,79.2
2016-11-27T05:01:31.214Z,79.2
2016-11-27T05:02:31.572Z,79.5
2016-11-27T05:03:31.934Z,79.1
2016-11-27T05:04:32.306Z,79.4
2016-11-27T05:05:32.679Z,79.4
2016-11-27T05:06:33.048Z,79.4
2016-11-27T05:07:33.413Z,79.3
2016-11-27T05:08:33.774Z,79.3
2016-11-27T05:09:34.141Z,79.5
2016-11-27T05:10:34.513Z,79.3
2016-11-27T05:11:34.874Z,79.3
2016-11-27T05:12:35.234Z,79.5
2016-11-27T05:13:35.592Z,79.1
2016-11-27T05:14:35.964Z,79.1
2016-11-27T05:15:36.679Z,79.4
2016-11-27T05:16:37.047Z,79.5
2016-11-27T05:17:37.414Z,79.3
2016-11-27T05:18:37.803Z,79.4
2016-11-27T05:19:38.166Z,79.1
2016-11-27T05:20:38.526Z,79.5
2016-11-27T05:21:38.890Z,79.3
2016-11-27T05:22:39.248Z,79.3
2016-11-27T05:23:39.611Z,79.2
2016-11-27T05:24:39.981Z,79.3
2016-11-27T05:25:40.354Z,79.3
2016-11-27T05:26:40.723Z,79.3
2016-11-27T05:27:41.092Z,79.3
2016-11-27T05:28:41.451Z,79.5
2016-11-27T05:29:41.811Z,79.4
2016-11-27T05:30:42.169Z,79.3
2016-11-27T05:31:42.529Z,79.4
2016-11-27T05:32:42.896Z,79.4
2016-11-27T05:33:43.567Z,79.1
2016-11-27T05:34:43.939Z,79.3
2016-11-27T05:35:44.297Z,79.1
2016-11-27T05:36:44.655Z,79.5
2016-11-27T05:37:45.015Z,79.4
2016-11-27T05:38:45.377Z,79.7
2016-11-27T05:39:45.738Z,79.8
2016-11-27T05:40:46.106Z,79.1
2016-11-27T05:41:46.469Z,79.4
2016-11-27T05:42:46.825Z,79.4
2016-11-27T05:43:47.191Z,79.4
2016-11-27T05:44:47.558Z,79.4
2016-11-27T05:45:47.927Z,79.2
2016-11-27T05:46:48.295Z,79.1
2016-11-27T05:47:48.662Z,79.5
2016-11-27T05:48:49.020Z,79.2
2016-11-27T05:49:49.378Z,79.3
2016-11-27T05:50:49.739Z,79.3
2016-11-27T05:51:50.106Z,79.4
2016-11-27T05:52:50.478Z,79.9
2016-11-27T05:53:50.854Z,79.4
2016-11-27T05:54:51.226Z,79.7
2016-11-27T05:55:51.589Z,79.9
2016-11-27T05:56:51.950Z,79.9
2016-11-27T05:57:52.307Z,79.7
2016-11-27T05:58:52.665Z,79.4
2016-11-27T05:59:53.025Z,79.3
2016-11-27T06:00:53.397Z,79.7
2016-11-27T06:01:53.767Z,79.9
2016-11-27T06:02:54.134Z,79.7
2016-11-27T06:03:54.797Z,79.9
2016-11-27T06:04:55.156Z,79.7
2016-11-27T06:05:55.513Z,79.7
2016-11-27T06:06:55.871Z,79.6
2016-11-27T06:07:56.235Z,79.7
2016-11-27T06:08:56.701Z,79.9
2016-11-27T06:09:57.070Z,79.9
2016-11-27T06:10:57.436Z,79.9
2016-11-27T06:11:57.803Z,79.7
2016-11-27T06:12:58.162Z,79.4
2016-11-27T06:13:58.525Z,79.1
2016-11-27T06:14:58.893Z,79
2016-11-27T06:15:59.257Z,78.9
2016-11-27T06:16:59.613Z,78.3
2016-11-27T06:17:59.979Z,77.9
2016-11-27T06:19:00.336Z,77.6
2016-11-27T06:20:00.695Z,78
2016-11-27T06:21:01.065Z,77.6
2016-11-27T06:22:01.432Z,77.6
2016-11-27T06:23:01.801Z,77.7
2016-11-27T06:24:02.163Z,77.4
2016-11-27T06:25:02.523Z,77.6
2016-11-27T06:26:02.885Z,77.4
2016-11-27T06:27:03.245Z,76.5
2016-11-27T06:28:03.612Z,76.8
2016-11-27T06:29:03.983Z,76.8
2016-11-27T06:30:04.345Z,76.7
2016-11-27T06:31:04.713Z,76.6
2016-11-27T06:32:05.076Z,76.9
2016-11-27T06:33:05.431Z,76.5
2016-11-27T06:34:06.088Z,76.8
2016-11-27T06:35:06.448Z,76.5
2016-11-27T06:36:06.814Z,76.7
2016-11-27T06:37:07.180Z,76.5
2016-11-27T06:38:07.553Z,76.7
2016-11-27T06:39:08.018Z,76.5
2016-11-27T06:40:08.377Z,76.6
2016-11-27T06:41:08.753Z,76.6
2016-11-27T06:42:09.110Z,76.3
2016-11-27T06:43:09.464Z,76.5
2016-11-27T06:44:09.831Z,76
2016-11-27T06:45:10.199Z,76.1
2016-11-27T06:46:10.562Z,76.1
2016-11-27T06:47:10.923Z,76.2
2016-11-27T06:48:11.289Z,76.3
2016-11-27T06:49:11.658Z,75.9
2016-11-27T06:50:12.025Z,76.1
2016-11-27T06:51:12.393Z,76.5
2016-11-27T06:52:12.751Z,76.9
2016-11-27T06:53:13.109Z,76.6
2016-11-27T06:54:13.470Z,76.7
2016-11-27T06:55:13.830Z,76.5
2016-11-27T06:56:14.196Z,76.5
2016-11-27T06:57:14.566Z,76.1
2016-11-27T06:58:14.932Z,75.9
2016-11-27T06:59:15.298Z,76
2016-11-27T07:00:15.660Z,76.2
2016-11-27T07:01:16.020Z,76.3
2016-11-27T07:02:16.376Z,75.6
2016-11-27T07:03:16.732Z,75.8
2016-11-27T07:04:17.104Z,75.7
2016-11-27T07:05:17.473Z,76.1
2016-11-27T07:06:17.839Z,75.6
2016-11-27T07:07:18.204Z,75.9
2016-11-27T07:08:18.565Z,76.3
2016-11-27T07:09:18.925Z,75.9
2016-11-27T07:10:19.283Z,75.9
2016-11-27T07:11:19.650Z,75.7
2016-11-27T07:12:20.015Z,75.6
2016-11-27T07:13:20.383Z,75.8
2016-11-27T07:14:20.753Z,75.7
2016-11-27T07:15:21.122Z,75.9
2016-11-27T07:16:21.485Z,75.9
2016-11-27T07:17:21.843Z,75.9
2016-11-27T07:18:22.219Z,76
2016-11-27T07:19:22.939Z,75.7
2016-11-27T07:20:23.303Z,75.7
2016-11-27T07:21:23.659Z,75.8
2016-11-27T07:22:24.016Z,75.9
2016-11-27T07:23:24.378Z,75.7
2016-11-27T07:24:24.739Z,75.7
2016-11-27T07:25:25.113Z,75.6
2016-11-27T07:26:25.481Z,76
2016-11-27T07:27:25.854Z,76.1
2016-11-27T07:28:26.221Z,75.7
2016-11-27T07:29:26.583Z,76
2016-11-27T07:30:26.944Z,75.3
2016-11-27T07:31:27.308Z,74.8
2016-11-27T07:32:27.679Z,74.2
2016-11-27T07:33:28.047Z,73.2
2016-11-27T07:34:28.418Z,73.4
2016-11-27T07:35:28.791Z,73.1
2016-11-27T07:36:29.156Z,72.2
2016-11-27T07:37:29.514Z,71.8
2016-11-27T07:38:29.872Z,71.8
2016-11-27T07:39:30.233Z,71.6
2016-11-27T07:40:30.602Z,71.4
2016-11-27T07:41:30.973Z,70.9
2016-11-27T07:42:31.343Z,71.7
2016-11-27T07:43:31.708Z,70.6
2016-11-27T07:44:32.066Z,71.2
2016-11-27T07:45:32.425Z,70.7
2016-11-27T07:46:32.783Z,69.8
2016-11-27T07:47:33.142Z,70.2
2016-11-27T07:48:33.505Z,69.7
2016-11-27T07:49:33.871Z,69.5
2016-11-27T07:50:34.240Z,68.8
2016-11-27T07:51:34.606Z,68.7
2016-11-27T07:52:34.972Z,68.4
2016-11-27T07:53:35.330Z,68.6
2016-11-27T07:54:35.689Z,68.3
2016-11-27T07:55:36.047Z,67.8
2016-11-27T07:56:36.412Z,68.1
2016-11-27T07:57:36.781Z,68.1
2016-11-27T07:58:37.151Z,67.2
2016-11-27T07:59:37.524Z,67.5
2016-11-27T08:00:37.891Z,67.2
2016-11-27T08:01:38.252Z,66.4
2016-11-27T08:02:38.614Z,65.8
2016-11-27T08:03:38.973Z,66
2016-11-27T08:04:39.342Z,65.6
2016-11-27T08:05:39.709Z,65.5
2016-11-27T08:06:40.075Z,65.6
2016-11-27T08:07:40.443Z,65.3
2016-11-27T08:08:40.804Z,66.1
2016-11-27T08:09:41.160Z,66.1
2016-11-27T08:10:41.522Z,66.1
2016-11-27T08:11:41.881Z,66.3
2016-11-27T08:12:42.275Z,66.3
2016-11-27T08:13:42.649Z,66.3
2016-11-27T08:14:43.016Z,66.5
2016-11-27T08:15:43.378Z,66.6
2016-11-27T08:16:43.743Z,66.4
2016-11-27T08:17:44.106Z,66.5
2016-11-27T08:18:44.466Z,66.1
2016-11-27T08:19:44.828Z,66.4
2016-11-27T08:20:45.194Z,66.4
2016-11-27T08:21:45.564Z,66
2016-11-27T08:22:45.929Z,66.1
2016-11-27T08:23:46.291Z,65.9
2016-11-27T08:24:46.657Z,65.6
2016-11-27T08:25:47.037Z,65.9
2016-11-27T08:26:47.402Z,66
2016-11-27T08:27:47.770Z,66
2016-11-27T08:28:48.138Z,66.2
2016-11-27T08:29:48.497Z,66.2
2016-11-27T08:30:48.863Z,66.5
2016-11-27T08:31:49.222Z,66.5
2016-11-27T08:32:49.585Z,67
2016-11-27T08:33:49.959Z,67.3
2016-11-27T08:34:50.334Z,67
2016-11-27T08:35:50.701Z,67.2
2016-11-27T08:36:51.064Z,67.6
2016-11-27T08:37:51.424Z,67.7
2016-11-27T08:38:51.784Z,67.3
2016-11-27T08:39:52.143Z,67.5
2016-11-27T08:40:52.509Z,67.8
2016-11-27T08:41:52.882Z,67.9
2016-11-27T08:42:53.252Z,67.9
2016-11-27T08:43:53.621Z,67.8
2016-11-27T08:44:53.988Z,68.2
2016-11-27T08:45:54.350Z,68.2
2016-11-27T08:46:54.709Z,68.7
2016-11-27T08:47:55.070Z,68.6
2016-11-27T08:48:55.440Z,68.7
2016-11-27T08:49:55.812Z,68.6
2016-11-27T08:50:56.178Z,69.2
2016-11-27T08:51:56.551Z,69.6
2016-11-27T08:52:56.912Z,69.6
2016-11-27T08:53:57.272Z,69.3
2016-11-27T08:54:57.640Z,69.9
2016-11-27T08:55:58.008Z,69.7
2016-11-27T08:56:58.370Z,70.2
2016-11-27T08:57:58.731Z,69.9
2016-11-27T08:58:59.091Z,69.6
2016-11-27T08:59:59.450Z,69.9
2016-11-27T09:00:59.812Z,69.9
2016-11-27T09:02:00.181Z,69.8
2016-11-27T09:03:00.558Z,70
2016-11-27T09:04:00.933Z,69.9
2016-11-27T09:05:01.298Z,70.2
2016-11-27T09:06:01.655Z,70
2016-11-27T09:07:02.015Z,70.2
2016-11-27T09:08:02.375Z,70
2016-11-27T09:09:02.740Z,70.2
2016-11-27T09:10:03.110Z,70.3
2016-11-27T09:11:03.485Z,69.9
2016-11-27T09:12:03.854Z,70.6
2016-11-27T09:13:04.219Z,70.5
2016-11-27T09:14:04.578Z,70.7
2016-11-27T09:15:04.938Z,70.7
2016-11-27T09:16:05.312Z,70.7
2016-11-27T09:17:05.682Z,70.2
2016-11-27T09:18:06.050Z,70.2
2016-11-27T09:19:06.414Z,70.5
2016-11-27T09:20:06.782Z,70.4
2016-11-27T09:21:07.143Z,70.5
2016-11-27T09:22:07.515Z,70.5
2016-11-27T09:23:07.876Z,70.4
2016-11-27T09:24:08.232Z,70.4
2016-11-27T09:25:08.607Z,70.9
2016-11-27T09:26:08.975Z,71.1
2016-11-27T09:27:09.338Z,70.3
2016-11-27T09:28:09.703Z,70.2
2016-11-27T09:29:10.072Z,70.9
2016-11-27T09:30:10.447Z,70.9
2016-11-27T09:31:10.819Z,70.9
2016-11-27T09:32:11.193Z,70.3
2016-11-27T09:33:11.556Z,70.9
2016-11-27T09:34:11.918Z,70.9
2016-11-27T09:35:12.278Z,70.6
2016-11-27T09:36:12.637Z,70.7
2016-11-27T09:37:13.005Z,71.3
2016-11-27T09:38:13.391Z,71.3
2016-11-27T09:39:13.762Z,71.5
2016-11-27T09:40:14.236Z,71.3
2016-11-27T09:41:14.604Z,71.5
2016-11-27T09:42:14.966Z,71.4
2016-11-27T09:43:15.326Z,71
2016-11-27T09:44:15.688Z,71.6
2016-11-27T09:45:16.056Z,71
2016-11-27T09:46:16.428Z,71.6
2016-11-27T09:47:16.790Z,71.7
2016-11-27T09:48:17.159Z,71.6
2016-11-27T09:49:17.522Z,71.4
2016-11-27T09:50:17.882Z,71.3
2016-11-27T09:51:18.249Z,71.2
2016-11-27T09:52:18.610Z,72.2
2016-11-27T09:53:18.976Z,71.7
2016-11-27T09:54:19.341Z,71.3
2016-11-27T09:55:19.707Z,71.6
2016-11-27T09:56:20.070Z,71.4
2016-11-27T09:57:20.428Z,71.2
2016-11-27T09:58:20.787Z,71.6
2016-11-27T09:59:21.152Z,71.2
2016-11-27T10:00:21.519Z,71.3
2016-11-27T10:01:21.883Z,71.4
2016-11-27T10:02:22.248Z,71.8
2016-11-27T10:03:22.607Z,71.5
2016-11-27T10:04:22.968Z,71.9
2016-11-27T10:05:23.361Z,71.8
2016-11-27T10:06:23.727Z,71.9
2016-11-27T10:07:24.100Z,71.7
2016-11-27T10:08:24.467Z,71.7
2016-11-27T10:09:24.837Z,71.9
2016-11-27T10:10:25.193Z,71.8
2016-11-27T10:11:25.553Z,71.9
2016-11-27T10:12:25.915Z,71.8
2016-11-27T10:13:26.280Z,71.6
2016-11-27T10:14:26.657Z,72
2016-11-27T10:15:27.026Z,71.9
2016-11-27T10:16:27.393Z,71.7
2016-11-27T10:17:27.758Z,71.4
2016-11-27T10:18:28.121Z,71.5
2016-11-27T10:19:28.487Z,71.9
2016-11-27T10:20:28.849Z,71.8
2016-11-27T10:21:29.214Z,71.8
2016-11-27T10:22:29.585Z,71.9
2016-11-27T10:23:29.956Z,71.9
2016-11-27T10:24:30.329Z,71.7
2016-11-27T10:25:30.687Z,72.1
2016-11-27T10:26:31.045Z,71.7
2016-11-27T10:27:31.408Z,71.7
2016-11-27T10:28:31.765Z,72
2016-11-27T10:29:32.128Z,71.9
2016-11-27T10:30:32.497Z,71.9
2016-11-27T10:31:32.863Z,72
2016-11-27T10:32:33.223Z,72.2
2016-11-27T10:33:33.590Z,72
2016-11-27T10:34:33.962Z,71.8
2016-11-27T10:35:34.331Z,72
2016-11-27T10:36:34.705Z,72.5
2016-11-27T10:37:35.068Z,72
2016-11-27T10:38:35.432Z,72.2
2016-11-27T10:39:35.791Z,71.8
2016-11-27T10:40:36.254Z,71.9
2016-11-27T10:41:36.620Z,71.7
2016-11-27T10:42:36.986Z,71.9
2016-11-27T10:43:37.358Z,71.8
2016-11-27T10:44:37.727Z,71.6
2016-11-27T10:45:38.085Z,71.9
2016-11-27T10:46:38.477Z,72.7
2016-11-27T10:47:38.832Z,72.4
2016-11-27T10:48:39.191Z,71.9
2016-11-27T10:49:39.554Z,72.6
2016-11-27T10:50:39.926Z,72.1
2016-11-27T10:51:40.296Z,71.9
2016-11-27T10:52:40.667Z,71.6
2016-11-27T10:53:41.036Z,72.1
2016-11-27T10:54:41.393Z,71.7
2016-11-27T10:55:41.751Z,71.8
2016-11-27T10:56:42.112Z,71.8
2016-11-27T10:57:42.479Z,72.7
2016-11-27T10:58:42.851Z,72.3
2016-11-27T10:59:43.218Z,72.5
2016-11-27T11:00:43.589Z,71.9
2016-11-27T11:01:43.949Z,71.8
2016-11-27T11:02:44.307Z,72
2016-11-27T11:03:44.672Z,71.8
2016-11-27T11:04:45.378Z,71.9
2016-11-27T11:05:45.751Z,71.9
2016-11-27T11:06:46.111Z,71.6
2016-11-27T11:07:46.473Z,71.6
2016-11-27T11:08:46.832Z,72.1
2016-11-27T11:09:47.196Z,72
2016-11-27T11:10:47.565Z,71.7
2016-11-27T11:11:47.935Z,71.9
2016-11-27T11:12:48.299Z,72
2016-11-27T11:13:48.657Z,72.2
2016-11-27T11:14:49.020Z,72.5
2016-11-27T11:15:49.383Z,72.1
2016-11-27T11:16:49.742Z,72.4
2016-11-27T11:17:50.111Z,72.4
2016-11-27T11:18:50.482Z,71.7
2016-11-27T11:19:50.853Z,72.1
2016-11-27T11:20:51.218Z,72
2016-11-27T11:21:51.580Z,72.1
2016-11-27T11:22:51.942Z,72.4
2016-11-27T11:23:52.304Z,71.9
2016-11-27T11:24:52.661Z,72
2016-11-27T11:25:53.025Z,72.5
2016-11-27T11:26:53.400Z,72.2
2016-11-27T11:27:53.773Z,72.4
2016-11-27T11:28:54.160Z,72.5
2016-11-27T11:29:54.525Z,72.1
2016-11-27T11:30:54.884Z,71.8
2016-11-27T11:31:55.247Z,72.7
2016-11-27T11:32:55.618Z,72.1
2016-11-27T11:33:55.983Z,72.1
2016-11-27T11:34:56.352Z,72.4
2016-11-27T11:35:56.769Z,72.2
2016-11-27T11:36:57.132Z,72.5
2016-11-27T11:37:57.501Z,72.3
2016-11-27T11:38:57.898Z,72.1
2016-11-27T11:39:58.278Z,72.3
2016-11-27T11:40:58.645Z,72.5
2016-11-27T11:41:59.004Z,72.3
2016-11-27T11:42:59.362Z,72.1
2016-11-27T11:43:59.724Z,72.4
2016-11-27T11:45:00.086Z,72.1
2016-11-27T11:46:00.448Z,72.4
2016-11-27T11:47:00.821Z,72.1
2016-11-27T11:48:01.193Z,72.2
2016-11-27T11:49:01.562Z,72.2
2016-11-27T11:50:01.932Z,72.2
2016-11-27T11:51:02.290Z,72.9
2016-11-27T11:52:02.648Z,72.7
2016-11-27T11:53:03.011Z,72.4
2016-11-27T11:54:03.379Z,72.1
2016-11-27T11:55:03.751Z,72.3
2016-11-27T11:56:04.122Z,72.3
2016-11-27T11:57:04.487Z,72.2
2016-11-27T11:58:04.851Z,72.3
2016-11-27T11:59:05.213Z,72.4
2016-11-27T12:00:05.574Z,72.2
2016-11-27T12:01:05.933Z,72.5
2016-11-27T12:02:06.299Z,72.2
2016-11-27T12:03:06.674Z,72.2
2016-11-27T12:04:07.039Z,72.2
2016-11-27T12:05:07.405Z,72.4
2016-11-27T12:06:07.777Z,72
2016-11-27T12:07:08.139Z,72.2
2016-11-27T12:08:08.503Z,72.3
2016-11-27T12:09:08.865Z,72.3
2016-11-27T12:10:09.231Z,72.2
2016-11-27T12:11:09.606Z,72.4
2016-11-27T12:12:09.977Z,72.4
2016-11-27T12:13:10.342Z,72.4
2016-11-27T12:14:10.705Z,72.3
2016-11-27T12:15:11.064Z,72.4
2016-11-27T12:16:11.428Z,72.4
2016-11-27T12:17:11.786Z,72.3
2016-11-27T12:18:12.151Z,72
2016-11-27T12:19:12.522Z,72.5
2016-11-27T12:20:12.921Z,72.2
2016-11-27T12:21:13.286Z,72.3
2016-11-27T12:22:13.658Z,72.3
2016-11-27T12:23:14.017Z,72.4
2016-11-27T12:24:14.379Z,72.3
2016-11-27T12:25:14.739Z,72.2
2016-11-27T12:26:15.099Z,72.1
2016-11-27T12:27:15.474Z,72
2016-11-27T12:28:15.847Z,72.5
2016-11-27T12:29:16.220Z,72.1
2016-11-27T12:30:16.584Z,72.4
2016-11-27T12:31:16.946Z,73
2016-11-27T12:32:17.315Z,73
2016-11-27T12:33:17.682Z,72.3
2016-11-27T12:34:18.047Z,72.1
2016-11-27T12:35:18.419Z,72.3
2016-11-27T12:36:18.784Z,72.2
2016-11-27T12:37:19.155Z,72.2
2016-11-27T12:38:19.520Z,72.3
2016-11-27T12:39:19.885Z,72.2
2016-11-27T12:40:20.251Z,72.4
2016-11-27T12:41:20.627Z,72.3
2016-11-27T12:42:20.991Z,72.3
2016-11-27T12:43:21.353Z,72.7
2016-11-27T12:44:21.714Z,72.1
2016-11-27T12:45:22.077Z,72.2
2016-11-27T12:46:22.441Z,72.2
2016-11-27T12:47:22.811Z,72.3
2016-11-27T12:48:23.182Z,72.3
2016-11-27T12:49:23.550Z,72.4
2016-11-27T12:50:23.915Z,72.1
2016-11-27T12:51:24.273Z,72.3
2016-11-27T12:52:24.635Z,72.3
2016-11-27T12:53:25.003Z,72.3
2016-11-27T12:54:25.369Z,72.3
2016-11-27T12:55:25.740Z,72.1
2016-11-27T12:56:26.109Z,72.2
2016-11-27T12:57:26.482Z,72.2
2016-11-27T12:58:26.854Z,72.4
2016-11-27T12:59:27.218Z,72
2016-11-27T13:00:27.579Z,72.1
2016-11-27T13:01:27.935Z,72.3
2016-11-27T13:02:28.301Z,72.3
2016-11-27T13:03:28.671Z,72.6
2016-11-27T13:04:29.040Z,72.4
2016-11-27T13:05:29.407Z,72.3
2016-11-27T13:06:29.773Z,72.1
2016-11-27T13:07:30.136Z,72.3
2016-11-27T13:08:30.497Z,72.2
2016-11-27T13:09:30.854Z,72.1
2016-11-27T13:10:31.223Z,72.4
2016-11-27T13:11:31.618Z,72.5
2016-11-27T13:12:31.979Z,72.3
2016-11-27T13:13:32.337Z,72.5
2016-11-27T13:14:32.703Z,72.5
2016-11-27T13:15:33.074Z,72.6
2016-11-27T13:16:33.446Z,72.9
2016-11-27T13:17:33.815Z,72.8
2016-11-27T13:18:34.178Z,72.7
2016-11-27T13:19:34.535Z,72.6
2016-11-27T13:20:34.895Z,72.8
2016-11-27T13:21:35.589Z,72.6
2016-11-27T13:22:35.950Z,72.5
2016-11-27T13:23:36.315Z,73.2
2016-11-27T13:24:36.682Z,73
2016-11-27T13:25:37.050Z,73.1
2016-11-27T13:26:37.412Z,73